createdAt,value
2023-07-24T00:00:02.819Z,2.50
2023-07-24T00:02:36.841Z,3.27
2023-07-24T00:05:09.188Z,4.70
2023-07-24T00:07:41.037Z,4.50
2023-07-24T00:10:12.812Z,3.10
2023-07-24T00:12:44.560Z,2.47
2023-07-24T00:15:16.663Z,6.63
2023-07-24T00:17:48.550Z,5.33
2023-07-24T00:20:20.454Z,5.90
2023-07-24T00:22:52.494Z,2.63
2023-07-24T00:25:24.385Z,2.67
2023-07-24T00:27:56.218Z,3.50
2023-07-24T00:30:28.187Z,3.10
2023-07-24T00:33:00.165Z,2.50
2023-07-24T00:35:32.083Z,6.77
2023-07-24T00:38:03.980Z,2.83
2023-07-24T00:40:36.112Z,3.57
2023-07-24T00:43:07.950Z,4.00
2023-07-24T00:45:40.547Z,2.40
2023-07-24T00:48:12.507Z,2.60
2023-07-24T00:50:44.777Z,3.20
2023-07-24T00:53:16.681Z,3.17
2023-07-24T00:55:48.430Z,7.07
2023-07-24T00:58:20.396Z,2.57
2023-07-24T01:03:53.005Z,3.50
2023-07-24T01:06:24.995Z,4.33
2023-07-24T01:08:56.841Z,2.43
2023-07-24T01:11:30.111Z,2.80
2023-07-24T01:14:12.343Z,2.63
2023-07-24T01:16:47.582Z,3.50
2023-07-24T01:19:31.443Z,6.37
2023-07-24T01:22:15.760Z,12.13
2023-07-24T01:25:12.070Z,3.27
2023-07-24T01:27:46.977Z,8.43
2023-07-24T01:30:20.709Z,5.10
2023-07-24T01:32:52.947Z,2.53
2023-07-24T01:35:24.868Z,3.10
2023-07-24T01:37:56.694Z,3.07
2023-07-24T01:40:29.861Z,2.60
2023-07-24T01:43:01.699Z,2.63
2023-07-24T01:45:33.517Z,4.20
2023-07-24T01:48:06.383Z,3.07
2023-07-24T01:50:38.272Z,3.10
2023-07-24T01:53:10.748Z,2.60
2023-07-24T01:55:42.577Z,2.83
2023-07-24T01:58:14.378Z,2.47
2023-07-24T02:00:46.197Z,3.17
2023-07-24T02:03:17.992Z,4.40
2023-07-24T02:05:51.941Z,4.07
2023-07-24T02:08:23.886Z,2.40
2023-07-24T02:10:55.823Z,2.10
2023-07-24T02:13:27.624Z,4.47
2023-07-24T02:15:59.645Z,2.63
2023-07-24T02:18:31.600Z,4.33
2023-07-24T02:21:03.561Z,2.33
2023-07-24T02:23:35.972Z,3.97
2023-07-24T02:26:07.921Z,2.07
2023-07-24T02:28:39.943Z,5.43
2023-07-24T02:31:11.992Z,2.67
2023-07-24T02:33:43.787Z,6.67
2023-07-24T02:36:16.251Z,2.77
2023-07-24T02:38:48.076Z,4.17
2023-07-24T02:41:20.168Z,2.50
2023-07-24T02:43:52.064Z,5.20
2023-07-24T02:46:25.958Z,9.50
2023-07-24T02:48:57.701Z,2.30
2023-07-24T02:51:29.658Z,3.17
2023-07-24T02:54:01.453Z,2.30
2023-07-24T02:56:33.255Z,3.03
2023-07-24T02:59:05.016Z,2.60
2023-07-24T03:01:37.727Z,1.93
2023-07-24T03:04:09.524Z,3.57
2023-07-24T03:06:41.804Z,2.03
2023-07-24T03:09:13.843Z,2.40
2023-07-24T03:11:45.614Z,3.33
2023-07-24T03:14:17.447Z,5.90
2023-07-24T03:16:49.268Z,2.10
2023-07-24T03:19:21.593Z,2.00
2023-07-24T03:21:53.400Z,2.20
2023-07-24T03:24:25.231Z,2.60
2023-07-24T03:26:57.027Z,5.03
2023-07-24T03:29:29.703Z,5.40
2023-07-24T03:32:01.476Z,4.50
2023-07-24T03:34:33.214Z,4.60
2023-07-24T03:37:05.189Z,2.40
2023-07-24T03:39:37.001Z,4.67
2023-07-24T03:42:11.275Z,2.77
2023-07-24T03:44:43.111Z,1.97
2023-07-24T03:47:14.928Z,2.83
2023-07-24T03:49:46.679Z,2.50
2023-07-24T03:52:18.516Z,3.83
2023-07-24T03:54:50.238Z,4.37
2023-07-24T03:57:22.068Z,3.53
2023-07-24T03:59:53.861Z,2.90
2023-07-24T04:02:25.688Z,2.80
2023-07-24T04:04:57.731Z,3.23
2023-07-24T04:07:29.513Z,3.13
2023-07-24T04:10:01.330Z,3.00
2023-07-24T04:12:33.571Z,5.33
2023-07-24T04:15:05.859Z,4.07
2023-07-24T04:17:39.930Z,3.03
2023-07-24T04:20:11.910Z,2.73
2023-07-24T04:25:39.837Z,3.07
2023-07-24T04:28:11.802Z,2.90
2023-07-24T04:30:43.678Z,5.30
2023-07-24T04:33:15.522Z,5.83
2023-07-24T04:35:50.788Z,3.50
2023-07-24T04:38:22.888Z,3.10
2023-07-24T04:40:54.733Z,5.27
2023-07-24T04:43:26.724Z,3.63
2023-07-24T04:45:58.489Z,3.57
2023-07-24T04:48:30.399Z,4.90
2023-07-24T04:51:02.137Z,3.53
2023-07-24T04:53:33.970Z,3.10
2023-07-24T04:56:05.836Z,5.30
2023-07-24T04:58:37.673Z,2.90
2023-07-24T05:01:13.125Z,2.77
2023-07-24T05:03:45.210Z,5.97
2023-07-24T05:06:19.212Z,3.33
2023-07-24T05:08:51.150Z,2.70
2023-07-24T05:11:23.089Z,3.17
2023-07-24T05:13:54.844Z,2.65
2023-07-24T05:16:26.751Z,4.40
2023-07-24T05:18:58.684Z,4.20
2023-07-24T05:21:30.679Z,2.33
2023-07-24T05:24:02.478Z,2.63
2023-07-24T05:26:34.356Z,5.28
2023-07-24T05:29:06.152Z,2.67
2023-07-24T05:31:38.028Z,2.50
2023-07-24T05:34:09.943Z,2.88
2023-07-24T05:36:42.026Z,2.75
2023-07-24T05:39:13.916Z,2.88
2023-07-24T05:41:45.895Z,3.05
2023-07-24T05:44:17.824Z,2.92
2023-07-24T05:46:49.805Z,3.45
2023-07-24T05:49:21.837Z,2.45
2023-07-24T05:51:55.241Z,2.67
2023-07-24T05:54:27.039Z,2.20
2023-07-24T05:56:59.120Z,2.95
2023-07-24T05:59:30.943Z,2.55
2023-07-24T06:02:02.968Z,4.95
2023-07-24T06:04:34.805Z,2.80
2023-07-24T06:07:06.732Z,2.20
2023-07-24T06:09:38.631Z,3.95
2023-07-24T06:12:10.506Z,2.53
2023-07-24T06:14:42.632Z,3.90
2023-07-24T06:17:14.501Z,2.25
2023-07-24T06:19:46.583Z,3.10
2023-07-24T06:22:18.450Z,2.13
2023-07-24T06:24:50.478Z,2.58
2023-07-24T06:27:22.455Z,2.30
2023-07-24T06:29:58.748Z,2.78
2023-07-24T06:32:37.106Z,2.80
2023-07-24T06:35:09.324Z,2.35
2023-07-24T06:37:41.160Z,2.42
2023-07-24T06:40:13.381Z,2.60
2023-07-24T06:42:45.375Z,2.63
2023-07-24T06:45:17.813Z,2.70
2023-07-24T06:47:49.998Z,2.83
2023-07-24T06:50:22.218Z,2.40
2023-07-24T06:52:55.063Z,2.90
2023-07-24T06:55:28.153Z,4.43
2023-07-24T06:58:00.114Z,2.47
2023-07-24T07:00:32.586Z,2.72
2023-07-24T07:03:04.659Z,2.50
2023-07-24T07:05:36.547Z,2.33
2023-07-24T07:08:08.402Z,2.80
2023-07-24T07:10:45.506Z,2.20
2023-07-24T07:13:17.503Z,3.63
2023-07-24T07:15:49.565Z,3.25
2023-07-24T07:18:21.419Z,2.67
2023-07-24T07:20:54.513Z,2.70
2023-07-24T07:23:26.394Z,2.42
2023-07-24T07:25:58.474Z,2.33
2023-07-24T07:28:30.253Z,2.50
2023-07-24T07:31:02.154Z,2.65
2023-07-24T07:33:34.097Z,2.55
2023-07-24T07:36:07.106Z,2.67
2023-07-24T07:38:41.000Z,2.22
2023-07-24T07:41:13.117Z,2.40
2023-07-24T07:43:45.068Z,2.55
2023-07-24T07:46:17.002Z,2.50
2023-07-24T07:48:50.250Z,3.55
2023-07-24T07:51:22.469Z,2.58
2023-07-24T07:53:54.255Z,2.40
2023-07-24T07:56:26.106Z,2.78
2023-07-24T07:58:57.904Z,3.78
2023-07-24T08:01:29.778Z,2.38
2023-07-24T08:04:01.604Z,2.75
2023-07-24T08:06:33.526Z,3.72
2023-07-24T08:09:05.418Z,2.33
2023-07-24T08:11:37.307Z,1.77
2023-07-24T08:14:09.199Z,3.63
2023-07-24T08:16:41.185Z,1.95
2023-07-24T08:19:13.381Z,3.63
2023-07-24T08:21:45.917Z,1.90
2023-07-24T08:24:17.738Z,2.25
2023-07-24T08:26:49.629Z,1.65
2023-07-24T08:29:21.775Z,3.33
2023-07-24T08:31:53.914Z,3.17
2023-07-24T08:34:25.837Z,2.05
2023-07-24T08:36:57.761Z,2.35
2023-07-24T08:39:29.959Z,2.58
2023-07-24T08:42:14.601Z,1.95
2023-07-24T08:44:46.372Z,2.30
2023-07-24T08:47:18.500Z,2.28
2023-07-24T08:49:50.542Z,2.35
2023-07-24T08:52:35.468Z,1.98
2023-07-24T08:55:08.562Z,2.28
2023-07-24T08:57:40.432Z,2.20
2023-07-24T09:00:12.683Z,2.03
2023-07-24T09:02:44.837Z,2.10
2023-07-24T09:05:27.444Z,2.50
2023-07-24T09:07:59.929Z,1.95
2023-07-24T09:10:32.077Z,2.83
2023-07-24T09:13:05.369Z,2.20
2023-07-24T09:15:43.928Z,1.65
2023-07-24T09:18:17.194Z,1.90
2023-07-24T09:20:49.410Z,3.42
2023-07-24T09:23:31.754Z,2.10
2023-07-24T09:26:07.922Z,1.80
2023-07-24T09:28:39.776Z,1.75
2023-07-24T09:31:11.863Z,1.63
2023-07-24T09:33:45.096Z,1.67
2023-07-24T09:36:16.897Z,2.05
2023-07-24T09:38:48.820Z,1.70
2023-07-24T09:41:28.574Z,1.50
2023-07-24T09:44:00.561Z,2.33
2023-07-24T09:46:34.339Z,1.90
2023-07-24T09:49:17.268Z,1.73
2023-07-24T09:51:49.160Z,1.77
2023-07-24T09:54:25.065Z,1.42
2023-07-24T09:57:03.720Z,1.60
2023-07-24T09:59:46.995Z,3.33
2023-07-24T10:02:19.102Z,1.67
2023-07-24T10:04:51.272Z,2.03
2023-07-24T10:07:32.318Z,2.60
2023-07-24T10:10:04.329Z,1.52
2023-07-24T10:12:37.469Z,2.38
2023-07-24T10:15:09.639Z,1.80
2023-07-24T10:17:43.222Z,2.92
2023-07-24T10:20:17.127Z,1.42
2023-07-24T10:22:49.331Z,2.92
2023-07-24T10:25:32.231Z,3.25
2023-07-24T10:28:08.907Z,3.28
2023-07-24T10:30:41.405Z,2.38
2023-07-24T10:33:14.989Z,1.60
2023-07-24T10:35:52.936Z,1.67
2023-07-24T10:38:36.264Z,3.53
2023-07-24T10:41:09.649Z,1.73
2023-07-24T10:43:48.234Z,2.10
2023-07-24T10:46:21.439Z,1.40
2023-07-24T10:48:53.502Z,1.98
2023-07-24T10:51:25.404Z,1.77
2023-07-24T10:53:57.208Z,2.08
2023-07-24T10:56:29.050Z,3.42
2023-07-24T10:59:05.443Z,1.75
2023-07-24T11:01:37.789Z,4.32
2023-07-24T11:04:09.900Z,2.38
2023-07-24T11:06:41.662Z,1.92
2023-07-24T11:09:13.412Z,3.75
2023-07-24T11:11:45.205Z,2.65
2023-07-24T11:14:17.061Z,3.17
2023-07-24T11:16:51.713Z,1.42
2023-07-24T11:19:25.419Z,1.95
2023-07-24T11:21:59.308Z,1.70
2023-07-24T11:24:31.432Z,1.88
2023-07-24T11:27:10.740Z,2.10
2023-07-24T11:29:43.768Z,3.20
2023-07-24T11:32:21.900Z,1.90
2023-07-24T11:34:53.897Z,2.53
2023-07-24T11:37:25.794Z,3.15
2023-07-24T11:39:58.852Z,2.55
2023-07-24T11:42:30.789Z,1.67
2023-07-24T11:45:03.317Z,1.85
2023-07-24T11:47:51.038Z,2.25
2023-07-24T11:50:24.234Z,2.95
2023-07-24T11:52:56.070Z,2.60
2023-07-24T11:55:32.619Z,2.00
2023-07-24T11:58:04.627Z,1.73
2023-07-24T12:00:41.588Z,1.88
2023-07-24T12:03:13.664Z,1.80
2023-07-24T12:05:47.917Z,3.10
2023-07-24T12:08:25.546Z,3.45
2023-07-24T12:10:57.501Z,2.00
2023-07-24T12:13:29.880Z,1.77
2023-07-24T12:16:01.656Z,1.90
2023-07-24T12:18:33.772Z,1.45
2023-07-24T12:21:06.065Z,3.67
2023-07-24T12:23:38.032Z,3.70
2023-07-24T12:26:10.061Z,1.67
2023-07-24T12:28:41.907Z,2.70
2023-07-24T12:31:13.793Z,1.75
2023-07-24T12:33:45.866Z,1.83
2023-07-24T12:36:17.722Z,1.75
2023-07-24T12:38:50.443Z,1.73
2023-07-24T12:41:22.335Z,2.85
2023-07-24T12:43:54.478Z,2.63
2023-07-24T12:46:26.554Z,2.22
2023-07-24T12:48:58.519Z,2.20
2023-07-24T12:51:30.768Z,1.40
2023-07-24T12:54:16.218Z,3.63
2023-07-24T12:56:54.195Z,1.75
2023-07-24T12:59:25.972Z,1.92
2023-07-24T13:01:57.860Z,1.55
2023-07-24T13:04:29.929Z,1.50
2023-07-24T13:07:01.772Z,1.88
2023-07-24T13:09:33.774Z,1.98
2023-07-24T13:12:06.165Z,1.52
2023-07-24T13:14:40.335Z,2.80
2023-07-24T13:17:14.281Z,5.20
2023-07-24T13:19:46.279Z,3.85
2023-07-24T13:22:18.058Z,6.85
2023-07-24T13:24:49.832Z,2.20
2023-07-24T13:27:21.767Z,2.90
2023-07-24T13:29:53.706Z,2.20
2023-07-24T13:32:31.188Z,2.63
2023-07-24T13:35:03.128Z,2.85
2023-07-24T13:37:34.933Z,3.88
2023-07-24T13:40:07.444Z,2.83
2023-07-24T13:42:39.315Z,5.18
2023-07-24T13:45:11.291Z,1.98
2023-07-24T13:47:43.098Z,2.58
2023-07-24T13:50:15.118Z,1.95
2023-07-24T13:52:46.924Z,1.98
2023-07-24T13:55:18.756Z,2.97
2023-07-24T13:57:50.548Z,1.75
2023-07-24T14:00:22.376Z,1.65
2023-07-24T14:02:54.817Z,2.47
2023-07-24T14:05:26.652Z,1.40
2023-07-24T14:07:58.449Z,1.63
2023-07-24T14:10:30.541Z,1.65
2023-07-24T14:13:02.356Z,2.38
2023-07-24T14:15:34.384Z,1.75
2023-07-24T14:18:06.223Z,1.98
2023-07-24T14:20:38.836Z,2.03
2023-07-24T14:23:10.707Z,1.52
2023-07-24T14:25:42.521Z,1.58
2023-07-24T14:28:14.284Z,2.38
2023-07-24T14:30:46.134Z,1.85
2023-07-24T14:33:17.984Z,1.50
2023-07-24T14:35:50.419Z,1.55
2023-07-24T14:38:22.647Z,1.90
2023-07-24T14:40:54.714Z,2.10
2023-07-24T14:43:26.864Z,1.70
2023-07-24T14:45:59.392Z,1.35
2023-07-24T14:48:33.502Z,1.38
2023-07-24T14:51:06.290Z,1.35
2023-07-24T14:53:38.224Z,1.70
2023-07-24T14:59:26.301Z,1.23
2023-07-24T15:02:23.005Z,1.10
2023-07-24T15:04:58.541Z,1.80
2023-07-24T15:07:35.872Z,1.25
2023-07-24T15:10:08.458Z,1.75
2023-07-24T15:12:40.309Z,1.77
2023-07-24T15:15:12.247Z,1.27
2023-07-24T15:17:44.112Z,1.50
2023-07-24T15:20:17.086Z,1.40
2023-07-24T15:22:49.449Z,1.33
2023-07-24T15:25:21.514Z,1.35
2023-07-24T15:27:53.430Z,2.65
2023-07-24T15:30:25.917Z,1.50
2023-07-24T15:32:57.688Z,1.50
2023-07-24T15:35:29.745Z,1.42
2023-07-24T15:38:02.591Z,1.23
2023-07-24T15:40:34.509Z,2.95
2023-07-24T15:43:06.534Z,1.02
2023-07-24T15:45:38.465Z,1.58
2023-07-24T15:48:10.951Z,1.35
2023-07-24T15:50:42.837Z,1.30
2023-07-24T15:53:14.593Z,3.10
2023-07-24T15:55:46.454Z,1.70
2023-07-24T15:58:18.421Z,1.80
2023-07-24T16:00:50.368Z,1.38
2023-07-24T16:03:22.525Z,1.17
2023-07-24T16:05:54.418Z,2.30
2023-07-24T16:08:26.998Z,0.93
2023-07-24T16:10:59.048Z,2.05
2023-07-24T16:13:30.914Z,1.83
2023-07-24T16:16:03.630Z,0.90
2023-07-24T16:18:35.523Z,1.55
2023-07-24T16:21:07.370Z,1.02
2023-07-24T16:23:39.413Z,1.40
2023-07-24T16:26:11.280Z,1.60
2023-07-24T16:28:43.040Z,1.15
2023-07-24T16:31:16.576Z,0.80
2023-07-24T16:33:49.990Z,1.23
2023-07-24T16:36:22.027Z,2.03
2023-07-24T16:38:54.075Z,1.10
2023-07-24T16:41:27.412Z,1.25
2023-07-24T16:44:02.118Z,0.70
2023-07-24T16:46:35.459Z,0.90
2023-07-24T16:49:07.768Z,0.90
2023-07-24T16:51:39.780Z,0.75
2023-07-24T16:54:11.785Z,0.82
2023-07-24T16:56:43.719Z,0.85
2023-07-24T16:59:15.592Z,1.00
2023-07-24T17:01:47.627Z,0.85
2023-07-24T17:04:19.414Z,0.90
2023-07-24T17:06:51.244Z,1.02
2023-07-24T17:09:23.007Z,0.95
2023-07-24T17:11:55.027Z,1.48
2023-07-24T17:14:27.026Z,0.90
2023-07-24T17:17:00.767Z,1.98
2023-07-24T17:19:33.024Z,2.78
2023-07-24T17:22:05.195Z,2.05
2023-07-24T17:24:37.053Z,2.85
2023-07-24T17:27:10.146Z,1.75
2023-07-24T17:29:42.007Z,4.82
2023-07-24T17:32:14.318Z,2.72
2023-07-24T17:34:46.906Z,1.05
2023-07-24T17:37:32.529Z,0.88
2023-07-24T17:40:09.545Z,1.10
2023-07-24T17:42:41.588Z,1.38
2023-07-24T17:45:15.784Z,3.38
2023-07-24T17:47:47.630Z,1.27
2023-07-24T17:50:21.094Z,0.80
2023-07-24T17:52:53.272Z,1.20
2023-07-24T17:55:25.160Z,4.13
2023-07-24T17:57:57.039Z,1.10
2023-07-24T18:00:28.939Z,1.30
2023-07-24T18:03:01.051Z,1.48
2023-07-24T18:05:32.956Z,1.40
2023-07-24T18:08:05.166Z,1.98
2023-07-24T18:10:37.380Z,1.45
2023-07-24T18:13:09.323Z,1.58
2023-07-24T18:15:41.208Z,2.42
2023-07-24T18:18:13.163Z,2.28
2023-07-24T18:20:45.102Z,4.97
2023-07-24T18:23:17.042Z,1.10
2023-07-24T18:25:48.862Z,1.70
2023-07-24T18:28:20.722Z,1.58
2023-07-24T18:30:52.550Z,1.20
2023-07-24T18:33:24.427Z,1.60
2023-07-24T18:35:56.250Z,1.20
2023-07-24T18:38:28.818Z,1.95
2023-07-24T18:41:01.266Z,1.13
2023-07-24T18:43:33.133Z,2.45
2023-07-24T18:46:05.207Z,1.50
2023-07-24T18:48:37.321Z,1.67
2023-07-24T18:51:09.735Z,1.15
2023-07-24T18:53:41.674Z,1.27
2023-07-24T18:56:13.505Z,1.15
2023-07-24T18:58:45.539Z,1.25
2023-07-24T19:01:17.544Z,2.00
2023-07-24T19:03:49.386Z,2.00
2023-07-24T19:06:21.759Z,1.30
2023-07-24T19:08:54.422Z,2.65
2023-07-24T19:11:26.787Z,1.88
2023-07-24T19:13:58.728Z,1.45
2023-07-24T19:16:30.592Z,1.20
2023-07-24T19:19:05.141Z,2.55
2023-07-24T19:21:37.249Z,1.60
2023-07-24T19:24:10.174Z,1.30
2023-07-24T19:26:41.964Z,1.55
2023-07-24T19:29:13.810Z,1.30
2023-07-24T19:31:45.583Z,1.45
2023-07-24T19:34:18.751Z,1.80
2023-07-24T19:36:52.067Z,1.30
2023-07-24T19:39:28.342Z,2.35
2023-07-24T19:42:00.635Z,2.08
2023-07-24T19:44:34.093Z,1.35
2023-07-24T19:47:06.077Z,1.65
2023-07-24T19:49:41.475Z,1.50
2023-07-24T19:52:13.540Z,1.83
2023-07-24T19:54:45.325Z,1.40
2023-07-24T19:57:17.189Z,1.52
2023-07-24T19:59:49.166Z,2.47
2023-07-24T20:02:21.285Z,1.73
2023-07-24T20:04:53.102Z,2.05
2023-07-24T20:07:24.899Z,2.50
2023-07-24T20:09:56.679Z,1.70
2023-07-24T20:12:28.575Z,1.63
2023-07-24T20:15:00.509Z,1.40
2023-07-24T20:17:32.450Z,2.55
2023-07-24T20:20:04.619Z,1.70
2023-07-24T20:22:36.580Z,1.50
2023-07-24T20:25:08.874Z,1.70
2023-07-24T20:27:41.263Z,2.13
2023-07-24T20:30:13.249Z,1.77
2023-07-24T20:32:45.273Z,3.60
2023-07-24T20:35:17.244Z,4.30
2023-07-24T20:37:50.726Z,2.72
2023-07-24T20:40:22.591Z,2.20
2023-07-24T20:42:54.517Z,3.03
2023-07-24T20:45:26.832Z,5.07
2023-07-24T20:47:59.086Z,3.90
2023-07-24T20:50:30.894Z,2.70
2023-07-24T20:53:02.703Z,3.10
2023-07-24T20:55:34.644Z,4.90
2023-07-24T20:58:06.668Z,4.60
2023-07-24T21:00:38.528Z,2.75
2023-07-24T21:03:10.559Z,2.38
2023-07-24T21:05:42.542Z,3.25
2023-07-24T21:08:15.702Z,3.03
2023-07-24T21:10:48.165Z,2.50
2023-07-24T21:13:20.043Z,3.22
2023-07-24T21:15:52.989Z,2.60
2023-07-24T21:18:24.821Z,2.53
2023-07-24T21:20:56.695Z,3.08
2023-07-24T21:23:28.476Z,2.80
2023-07-24T21:26:00.387Z,3.20
2023-07-24T21:28:32.142Z,4.43
2023-07-24T21:31:09.052Z,3.22
2023-07-24T21:33:41.159Z,3.97
2023-07-24T21:36:13.037Z,3.58
2023-07-24T21:38:45.406Z,6.65
2023-07-24T21:41:17.359Z,4.85
2023-07-24T21:43:49.263Z,4.25
2023-07-24T21:46:21.072Z,4.05
2023-07-24T21:48:52.910Z,3.97
2023-07-24T21:51:25.653Z,4.95
2023-07-24T21:53:57.598Z,4.28
2023-07-24T21:56:29.504Z,5.70
2023-07-24T21:59:01.384Z,4.75
2023-07-24T22:01:33.774Z,4.68
2023-07-24T22:04:05.987Z,5.43
2023-07-24T22:06:37.941Z,5.97
2023-07-24T22:09:09.858Z,4.88
2023-07-24T22:11:41.709Z,4.75
2023-07-24T22:14:15.489Z,4.75
2023-07-24T22:16:47.452Z,4.65
2023-07-24T22:19:19.292Z,4.57
2023-07-24T22:21:51.305Z,5.18
2023-07-24T22:24:23.283Z,4.82
2023-07-24T22:26:55.710Z,5.25
2023-07-24T22:29:27.707Z,5.22
2023-07-24T22:31:59.552Z,6.45
2023-07-24T22:34:31.455Z,6.15
2023-07-24T22:37:03.526Z,7.10
2023-07-24T22:39:35.638Z,5.88
2023-07-24T22:42:07.618Z,6.78
2023-07-24T22:44:39.871Z,8.82
2023-07-24T22:47:11.825Z,5.65
2023-07-24T22:49:43.789Z,6.70
2023-07-24T22:52:15.826Z,6.13
2023-07-24T22:54:47.961Z,6.35
2023-07-24T22:57:19.816Z,8.32
2023-07-24T22:59:51.686Z,6.22
2023-07-24T23:02:25.016Z,7.28
2023-07-24T23:04:57.108Z,7.30
2023-07-24T23:07:29.009Z,6.95
2023-07-24T23:10:01.038Z,9.18
2023-07-24T23:12:33.185Z,12.68
2023-07-24T23:15:05.153Z,10.95
2023-07-24T23:17:37.079Z,7.07
2023-07-24T23:20:09.366Z,8.43
2023-07-24T23:22:41.244Z,8.60
2023-07-24T23:25:13.160Z,10.38
2023-07-24T23:27:45.223Z,11.70
2023-07-24T23:30:17.148Z,9.57
2023-07-24T23:32:49.192Z,9.73
2023-07-24T23:35:21.009Z,10.23
2023-07-24T23:37:52.889Z,7.85
2023-07-24T23:40:24.747Z,13.95
2023-07-24T23:42:56.584Z,11.15
2023-07-24T23:45:37.529Z,10.25
2023-07-24T23:48:09.435Z,9.70
2023-07-24T23:50:41.366Z,9.60
2023-07-24T23:53:13.181Z,11.65
2023-07-24T23:55:44.994Z,8.65
2023-07-24T23:58:17.072Z,10.45
